LBT782 DTTA-DTTJ
Flight info
| Callsign | LBT782 |
|---|---|
| Flight time | 0h 53m |
| Altitude | 23000 |
| Route | GIBLI2A GIBLI A411 MON UA411 ELJEM A411 SFX UA411 JBA DCT |
| Aircraft | A320/M-SDE3FGHIRWY/LB1 |
Departure
| Time | 2026-05-06 14:12 |
|---|---|
| Airport | Tunis Carthage International Airport (DTTA) |
Arrival
| Time | 2026-05-06 15:06 |
|---|---|
| Airport | Djerba Zarzis International Airport (DTTJ) |
| Time | Latitude | Longitude | Altitude | Speed | Heading |
|---|---|---|---|---|---|
| 2026-05-06 13:39 | 36.84281 | 10.21844 | 30 ft | 0 kts | 283° |
| 2026-05-06 14:02 | 36.84279 | 10.21854 | 30 ft | 4 kts | 282° |
| 2026-05-06 14:02 | 36.84275 | 10.21887 | 30 ft | 4 kts | 274° |
| 2026-05-06 14:02 | 36.84275 | 10.21920 | 30 ft | 4 kts | 252° |
| 2026-05-06 14:03 | 36.84287 | 10.21942 | 30 ft | 2 kts | 192° |
| 2026-05-06 14:03 | 36.84288 | 10.21942 | 30 ft | 1 kts | 192° |
| 2026-05-06 14:07 | 36.84278 | 10.21939 | 30 ft | 5 kts | 192° |
| 2026-05-06 14:07 | 36.84232 | 10.21928 | 30 ft | 7 kts | 192° |
| 2026-05-06 14:08 | 36.84190 | 10.21916 | 30 ft | 5 kts | 192° |
| 2026-05-06 14:08 | 36.84158 | 10.21907 | 30 ft | 5 kts | 192° |
| 2026-05-06 14:08 | 36.84110 | 10.21894 | 30 ft | 9 kts | 192° |
| 2026-05-06 14:08 | 36.84039 | 10.21876 | 30 ft | 12 kts | 192° |
| 2026-05-06 14:09 | 36.83963 | 10.21855 | 30 ft | 10 kts | 192° |
| 2026-05-06 14:09 | 36.83907 | 10.21880 | 30 ft | 8 kts | 123° |
| 2026-05-06 14:09 | 36.83894 | 10.21941 | 30 ft | 7 kts | 101° |
| 2026-05-06 14:09 | 36.83886 | 10.21990 | 30 ft | 5 kts | 101° |
| 2026-05-06 14:10 | 36.83880 | 10.22026 | 30 ft | 6 kts | 101° |
| 2026-05-06 14:10 | 36.83866 | 10.22131 | 30 ft | 16 kts | 94° |
| 2026-05-06 14:10 | 36.83888 | 10.22262 | 31 ft | 15 kts | 62° |
| 2026-05-06 14:10 | 36.83956 | 10.22365 | 31 ft | 16 kts | 44° |
| 2026-05-06 14:11 | 36.84028 | 10.22407 | 31 ft | 0 kts | 12° |
| 2026-05-06 14:11 | 36.84146 | 10.22439 | 32 ft | 51 kts | 12° |
| 2026-05-06 14:11 | 36.84714 | 10.22592 | 30 ft | 113 kts | 12° |
| 2026-05-06 14:12 | 36.85653 | 10.22845 | 35 ft | 160 kts | 12° |
| 2026-05-06 14:12 | 36.86772 | 10.23152 | 557 ft | 167 kts | 13° |
| 2026-05-06 14:12 | 36.87929 | 10.23470 | 1176 ft | 173 kts | 14° |
| 2026-05-06 14:12 | 36.89100 | 10.23789 | 1790 ft | 172 kts | 15° |
| 2026-05-06 14:13 | 36.90270 | 10.24100 | 2334 ft | 174 kts | 16° |
| 2026-05-06 14:13 | 36.91500 | 10.24440 | 2571 ft | 194 kts | 15° |
| 2026-05-06 14:13 | 36.92898 | 10.24829 | 2789 ft | 214 kts | 15° |
| 2026-05-06 14:13 | 36.94395 | 10.25206 | 3332 ft | 223 kts | 7° |
| 2026-05-06 14:14 | 36.95938 | 10.24872 | 3943 ft | 233 kts | 334° |
| 2026-05-06 14:14 | 36.97156 | 10.23527 | 4563 ft | 238 kts | 300° |
| 2026-05-06 14:14 | 36.97634 | 10.21569 | 5179 ft | 237 kts | 266° |
| 2026-05-06 14:14 | 36.97242 | 10.19618 | 5854 ft | 231 kts | 234° |
| 2026-05-06 14:15 | 36.96152 | 10.18218 | 6539 ft | 223 kts | 206° |
| 2026-05-06 14:15 | 36.94727 | 10.17580 | 7222 ft | 220 kts | 193° |
| 2026-05-06 14:15 | 36.93252 | 10.17101 | 7921 ft | 219 kts | 189° |
| 2026-05-06 14:15 | 36.91728 | 10.17160 | 8589 ft | 222 kts | 167° |
| 2026-05-06 14:16 | 36.90339 | 10.18056 | 9268 ft | 230 kts | 148° |
| 2026-05-06 14:16 | 36.89064 | 10.19285 | 9923 ft | 233 kts | 149° |
| 2026-05-06 14:16 | 36.88212 | 10.20111 | 10332 ft | 234 kts | 149° |
| 2026-05-06 14:16 | 36.86922 | 10.21367 | 10960 ft | 235 kts | 149° |
| 2026-05-06 14:17 | 36.85192 | 10.22984 | 11786 ft | 233 kts | 158° |
| 2026-05-06 14:17 | 36.83693 | 10.23826 | 12121 ft | 244 kts | 166° |
| 2026-05-06 14:17 | 36.82583 | 10.24353 | 12215 ft | 260 kts | 166° |
| 2026-05-06 14:17 | 36.80816 | 10.25172 | 12345 ft | 282 kts | 166° |
| 2026-05-06 14:18 | 36.78903 | 10.26057 | 12476 ft | 304 kts | 165° |
| 2026-05-06 14:18 | 36.76859 | 10.27012 | 12710 ft | 320 kts | 165° |
| 2026-05-06 14:18 | 36.74779 | 10.27998 | 13235 ft | 326 kts | 165° |
| 2026-05-06 14:18 | 36.72656 | 10.29012 | 13866 ft | 328 kts | 165° |
| 2026-05-06 14:19 | 36.70510 | 10.30037 | 14421 ft | 331 kts | 165° |
| 2026-05-06 14:19 | 36.68341 | 10.31072 | 14943 ft | 335 kts | 165° |
| 2026-05-06 14:19 | 36.66143 | 10.32116 | 15457 ft | 339 kts | 165° |
| 2026-05-06 14:19 | 36.63955 | 10.33155 | 15939 ft | 344 kts | 166° |
| 2026-05-06 14:20 | 36.61702 | 10.34220 | 16438 ft | 348 kts | 166° |
| 2026-05-06 14:20 | 36.59419 | 10.35299 | 16905 ft | 353 kts | 166° |
| 2026-05-06 14:20 | 36.57106 | 10.36394 | 17400 ft | 357 kts | 166° |
| 2026-05-06 14:20 | 36.54772 | 10.37498 | 17902 ft | 361 kts | 166° |
| 2026-05-06 14:21 | 36.52414 | 10.38612 | 18366 ft | 365 kts | 166° |
| 2026-05-06 14:21 | 36.50023 | 10.39739 | 18801 ft | 369 kts | 166° |
| 2026-05-06 14:21 | 36.47620 | 10.40870 | 19229 ft | 372 kts | 166° |
| 2026-05-06 14:21 | 36.45186 | 10.42013 | 19641 ft | 375 kts | 166° |
| 2026-05-06 14:22 | 36.42730 | 10.43167 | 20050 ft | 378 kts | 165° |
| 2026-05-06 14:22 | 36.40282 | 10.44317 | 20441 ft | 381 kts | 165° |
| 2026-05-06 14:22 | 36.37785 | 10.45491 | 20845 ft | 384 kts | 165° |
| 2026-05-06 14:22 | 36.35269 | 10.46691 | 21263 ft | 388 kts | 164° |
| 2026-05-06 14:23 | 36.32741 | 10.47910 | 21650 ft | 391 kts | 164° |
| 2026-05-06 14:23 | 36.30200 | 10.49143 | 22044 ft | 394 kts | 163° |
| 2026-05-06 14:23 | 36.27637 | 10.50385 | 22419 ft | 397 kts | 163° |
| 2026-05-06 14:23 | 36.25081 | 10.51607 | 22776 ft | 400 kts | 163° |
| 2026-05-06 14:24 | 36.22476 | 10.52841 | 22878 ft | 397 kts | 163° |
| 2026-05-06 14:24 | 36.19915 | 10.54053 | 22891 ft | 391 kts | 164° |
| 2026-05-06 14:24 | 36.17367 | 10.55252 | 22888 ft | 389 kts | 164° |
| 2026-05-06 14:24 | 36.14837 | 10.56437 | 22890 ft | 389 kts | 164° |
| 2026-05-06 14:25 | 36.12304 | 10.57621 | 22891 ft | 389 kts | 164° |
| 2026-05-06 14:25 | 36.09776 | 10.58802 | 22889 ft | 389 kts | 164° |
| 2026-05-06 14:25 | 36.07234 | 10.59991 | 22887 ft | 389 kts | 164° |
| 2026-05-06 14:25 | 36.04735 | 10.61163 | 22887 ft | 389 kts | 164° |
| 2026-05-06 14:26 | 36.02196 | 10.62356 | 22885 ft | 390 kts | 164° |
| 2026-05-06 14:26 | 35.99664 | 10.63545 | 22880 ft | 390 kts | 164° |
| 2026-05-06 14:26 | 35.97126 | 10.64737 | 22876 ft | 390 kts | 164° |
| 2026-05-06 14:26 | 35.94593 | 10.65922 | 22855 ft | 390 kts | 164° |
| 2026-05-06 14:27 | 35.92049 | 10.67109 | 22857 ft | 390 kts | 164° |
| 2026-05-06 14:27 | 35.89503 | 10.68295 | 22859 ft | 391 kts | 164° |
| 2026-05-06 14:27 | 35.86960 | 10.69480 | 22856 ft | 391 kts | 164° |
| 2026-05-06 14:27 | 35.84413 | 10.70667 | 22855 ft | 391 kts | 164° |
| 2026-05-06 14:28 | 35.81860 | 10.71857 | 22857 ft | 391 kts | 164° |
| 2026-05-06 14:28 | 35.79307 | 10.73044 | 22853 ft | 392 kts | 164° |
| 2026-05-06 14:28 | 35.76766 | 10.74108 | 22854 ft | 388 kts | 171° |
| 2026-05-06 14:28 | 35.74112 | 10.74628 | 22852 ft | 382 kts | 181° |
| 2026-05-06 14:29 | 35.71470 | 10.74588 | 22852 ft | 379 kts | 187° |
| 2026-05-06 14:29 | 35.68839 | 10.74429 | 22852 ft | 379 kts | 187° |
| 2026-05-06 14:29 | 35.66193 | 10.74277 | 22851 ft | 380 kts | 187° |
| 2026-05-06 14:29 | 35.63548 | 10.74128 | 22847 ft | 380 kts | 187° |
| 2026-05-06 14:30 | 35.60908 | 10.73981 | 22847 ft | 380 kts | 187° |
| 2026-05-06 14:30 | 35.58266 | 10.73834 | 22843 ft | 380 kts | 187° |
| 2026-05-06 14:30 | 35.55657 | 10.73689 | 22841 ft | 381 kts | 187° |
| 2026-05-06 14:30 | 35.53005 | 10.73540 | 22838 ft | 381 kts | 187° |
| 2026-05-06 14:31 | 35.50355 | 10.73388 | 22833 ft | 381 kts | 188° |
| 2026-05-06 14:31 | 35.47705 | 10.73234 | 22827 ft | 381 kts | 188° |
| 2026-05-06 14:31 | 35.45054 | 10.73083 | 22823 ft | 381 kts | 188° |
| 2026-05-06 14:31 | 35.42398 | 10.72931 | 22823 ft | 382 kts | 188° |
| 2026-05-06 14:32 | 35.39744 | 10.72782 | 22810 ft | 382 kts | 188° |
| 2026-05-06 14:32 | 35.37092 | 10.72637 | 22814 ft | 382 kts | 188° |
| 2026-05-06 14:32 | 35.34427 | 10.72496 | 22814 ft | 382 kts | 188° |
| 2026-05-06 14:32 | 35.31770 | 10.72358 | 22812 ft | 382 kts | 188° |
| 2026-05-06 14:33 | 35.29142 | 10.72216 | 22799 ft | 382 kts | 188° |
| 2026-05-06 14:33 | 35.26483 | 10.72073 | 22814 ft | 382 kts | 188° |
| 2026-05-06 14:33 | 35.23855 | 10.71934 | 22807 ft | 382 kts | 189° |
| 2026-05-06 14:33 | 35.21168 | 10.71790 | 22809 ft | 383 kts | 189° |
| 2026-05-06 14:34 | 35.18509 | 10.71648 | 22799 ft | 383 kts | 189° |
| 2026-05-06 14:34 | 35.15869 | 10.71508 | 22800 ft | 383 kts | 189° |
| 2026-05-06 14:34 | 35.13211 | 10.71367 | 22799 ft | 383 kts | 189° |
| 2026-05-06 14:34 | 35.10533 | 10.71225 | 22807 ft | 383 kts | 189° |
| 2026-05-06 14:35 | 35.07871 | 10.71080 | 22805 ft | 383 kts | 189° |
| 2026-05-06 14:35 | 35.05233 | 10.70934 | 22795 ft | 382 kts | 190° |
| 2026-05-06 14:35 | 35.02572 | 10.70787 | 22798 ft | 382 kts | 190° |
| 2026-05-06 14:35 | 34.99904 | 10.70643 | 22802 ft | 383 kts | 190° |
| 2026-05-06 14:36 | 34.97248 | 10.70505 | 22668 ft | 378 kts | 190° |
| 2026-05-06 14:36 | 34.94682 | 10.70373 | 22376 ft | 369 kts | 190° |
| 2026-05-06 14:36 | 34.92119 | 10.70221 | 21903 ft | 366 kts | 191° |
| 2026-05-06 14:36 | 34.89581 | 10.70055 | 21464 ft | 363 kts | 190° |
| 2026-05-06 14:37 | 34.87075 | 10.69890 | 21008 ft | 357 kts | 190° |
| 2026-05-06 14:37 | 34.84610 | 10.69731 | 20322 ft | 351 kts | 190° |
| 2026-05-06 14:37 | 34.82202 | 10.69575 | 19788 ft | 341 kts | 189° |
| 2026-05-06 14:37 | 34.79873 | 10.69430 | 19366 ft | 329 kts | 189° |
| 2026-05-06 14:38 | 34.77648 | 10.69292 | 18953 ft | 318 kts | 189° |
| 2026-05-06 14:38 | 34.75476 | 10.69155 | 18554 ft | 307 kts | 189° |
| 2026-05-06 14:38 | 34.73367 | 10.69021 | 18174 ft | 300 kts | 189° |
| 2026-05-06 14:38 | 34.71288 | 10.68887 | 17749 ft | 298 kts | 189° |
| 2026-05-06 14:39 | 34.69227 | 10.68750 | 17365 ft | 294 kts | 189° |
| 2026-05-06 14:39 | 34.67193 | 10.68608 | 16999 ft | 290 kts | 189° |
| 2026-05-06 14:39 | 34.65183 | 10.68467 | 16615 ft | 287 kts | 189° |
| 2026-05-06 14:39 | 34.63193 | 10.68327 | 16250 ft | 285 kts | 188° |
| 2026-05-06 14:40 | 34.61212 | 10.68185 | 15887 ft | 285 kts | 188° |
| 2026-05-06 14:40 | 34.59258 | 10.68044 | 15526 ft | 285 kts | 188° |
| 2026-05-06 14:40 | 34.57267 | 10.67902 | 15162 ft | 285 kts | 188° |
| 2026-05-06 14:40 | 34.55282 | 10.67766 | 14797 ft | 285 kts | 187° |
| 2026-05-06 14:41 | 34.53300 | 10.67633 | 14437 ft | 286 kts | 187° |
| 2026-05-06 14:41 | 34.51313 | 10.67500 | 14068 ft | 286 kts | 187° |
| 2026-05-06 14:41 | 34.49344 | 10.67366 | 13701 ft | 287 kts | 187° |
| 2026-05-06 14:41 | 34.47350 | 10.67231 | 13303 ft | 287 kts | 186° |
| 2026-05-06 14:42 | 34.45358 | 10.67097 | 12918 ft | 286 kts | 186° |
| 2026-05-06 14:42 | 34.43369 | 10.66966 | 12541 ft | 285 kts | 186° |
| 2026-05-06 14:42 | 34.41389 | 10.66831 | 12164 ft | 285 kts | 186° |
| 2026-05-06 14:42 | 34.39404 | 10.66696 | 11777 ft | 284 kts | 186° |
| 2026-05-06 14:43 | 34.37427 | 10.66560 | 11396 ft | 284 kts | 186° |
| 2026-05-06 14:43 | 34.35478 | 10.66425 | 11043 ft | 282 kts | 186° |
| 2026-05-06 14:43 | 34.33543 | 10.66292 | 10842 ft | 276 kts | 186° |
| 2026-05-06 14:43 | 34.31621 | 10.66162 | 10476 ft | 276 kts | 185° |
| 2026-05-06 14:44 | 34.29702 | 10.66031 | 10108 ft | 276 kts | 185° |
| 2026-05-06 14:44 | 34.27777 | 10.65899 | 9743 ft | 276 kts | 185° |
| 2026-05-06 14:44 | 34.25883 | 10.65770 | 9364 ft | 276 kts | 185° |
| 2026-05-06 14:45 | 34.22057 | 10.65509 | 8627 ft | 274 kts | 185° |
| 2026-05-06 14:45 | 34.20158 | 10.65380 | 8235 ft | 274 kts | 185° |
| 2026-05-06 14:45 | 34.18252 | 10.65250 | 7843 ft | 273 kts | 185° |
| 2026-05-06 14:45 | 34.16361 | 10.65122 | 7464 ft | 272 kts | 185° |
| 2026-05-06 14:46 | 34.14475 | 10.64996 | 7026 ft | 269 kts | 185° |
| 2026-05-06 14:46 | 34.12605 | 10.64874 | 6508 ft | 268 kts | 185° |
| 2026-05-06 14:46 | 34.10763 | 10.64753 | 6006 ft | 267 kts | 184° |
| 2026-05-06 14:46 | 34.08909 | 10.64630 | 5514 ft | 265 kts | 184° |
| 2026-05-06 14:47 | 34.07083 | 10.64505 | 5079 ft | 260 kts | 183° |
| 2026-05-06 14:47 | 34.05299 | 10.64382 | 4662 ft | 253 kts | 183° |
| 2026-05-06 14:47 | 34.03559 | 10.64262 | 4220 ft | 247 kts | 182° |
| 2026-05-06 14:47 | 34.01862 | 10.64146 | 3815 ft | 241 kts | 182° |
| 2026-05-06 14:48 | 34.00218 | 10.64033 | 3417 ft | 236 kts | 182° |
| 2026-05-06 14:48 | 33.98573 | 10.63921 | 3019 ft | 233 kts | 181° |
| 2026-05-06 14:48 | 33.96962 | 10.63816 | 2656 ft | 231 kts | 181° |
| 2026-05-06 14:48 | 33.95394 | 10.63711 | 2597 ft | 229 kts | 180° |
| 2026-05-06 14:49 | 33.93794 | 10.63603 | 2508 ft | 229 kts | 181° |
| 2026-05-06 14:49 | 33.92194 | 10.63494 | 2412 ft | 228 kts | 180° |
| 2026-05-06 14:49 | 33.90617 | 10.63386 | 2303 ft | 221 kts | 180° |
| 2026-05-06 14:49 | 33.89140 | 10.63368 | 2208 ft | 205 kts | 165° |
| 2026-05-06 14:50 | 33.87917 | 10.64123 | 2123 ft | 197 kts | 133° |
| 2026-05-06 14:50 | 33.87273 | 10.65539 | 1819 ft | 199 kts | 101° |
| 2026-05-06 14:50 | 33.87268 | 10.67189 | 1608 ft | 194 kts | 91° |
| 2026-05-06 14:50 | 33.87317 | 10.68792 | 1610 ft | 190 kts | 92° |
| 2026-05-06 14:51 | 33.87359 | 10.70326 | 1611 ft | 172 kts | 92° |
| 2026-05-06 14:51 | 33.87401 | 10.71689 | 1548 ft | 158 kts | 92° |
| 2026-05-06 14:51 | 33.87455 | 10.73005 | 1049 ft | 157 kts | 92° |
| 2026-05-06 14:51 | 33.87461 | 10.74333 | 551 ft | 157 kts | 90° |
| 2026-05-06 14:52 | 33.87491 | 10.75650 | 179 ft | 155 kts | 88° |
| 2026-05-06 14:52 | 33.87524 | 10.76883 | 34 ft | 135 kts | 86° |
| 2026-05-06 14:52 | 33.87558 | 10.77915 | 50 ft | 121 kts | 88° |
| 2026-05-06 14:52 | 33.87602 | 10.78976 | 607 ft | 129 kts | 90° |
| 2026-05-06 14:53 | 33.87640 | 10.80123 | 1112 ft | 149 kts | 90° |
| 2026-05-06 14:53 | 33.87709 | 10.81338 | 1737 ft | 143 kts | 89° |
| 2026-05-06 14:53 | 33.88039 | 10.82493 | 2235 ft | 155 kts | 60° |
| 2026-05-06 14:53 | 33.88999 | 10.83222 | 2681 ft | 179 kts | 12° |
| 2026-05-06 14:54 | 33.90235 | 10.82892 | 3112 ft | 189 kts | 324° |
| 2026-05-06 14:54 | 33.91135 | 10.81757 | 3477 ft | 190 kts | 296° |
| 2026-05-06 14:54 | 33.91668 | 10.80292 | 3782 ft | 194 kts | 281° |
| 2026-05-06 14:54 | 33.92047 | 10.78734 | 4241 ft | 190 kts | 281° |
| 2026-05-06 14:55 | 33.92679 | 10.77297 | 4398 ft | 211 kts | 310° |
| 2026-05-06 14:55 | 33.93951 | 10.76340 | 4414 ft | 220 kts | 331° |
| 2026-05-06 14:55 | 33.95130 | 10.75230 | 4402 ft | 213 kts | 299° |
| 2026-05-06 14:55 | 33.95632 | 10.73605 | 4401 ft | 206 kts | 276° |
| 2026-05-06 14:56 | 33.95861 | 10.71904 | 4406 ft | 205 kts | 272° |
| 2026-05-06 14:56 | 33.96058 | 10.70202 | 4409 ft | 205 kts | 272° |
| 2026-05-06 14:56 | 33.96252 | 10.68507 | 4411 ft | 204 kts | 272° |
| 2026-05-06 14:56 | 33.96450 | 10.66818 | 4414 ft | 204 kts | 272° |
| 2026-05-06 14:57 | 33.96639 | 10.65124 | 4411 ft | 204 kts | 272° |
| 2026-05-06 14:57 | 33.96826 | 10.63431 | 4413 ft | 204 kts | 272° |
| 2026-05-06 14:57 | 33.96954 | 10.61747 | 4415 ft | 203 kts | 266° |
| 2026-05-06 14:57 | 33.96876 | 10.60066 | 4418 ft | 200 kts | 260° |
| 2026-05-06 14:58 | 33.96743 | 10.58390 | 4418 ft | 201 kts | 259° |
| 2026-05-06 14:58 | 33.96608 | 10.56715 | 4421 ft | 201 kts | 259° |
| 2026-05-06 14:58 | 33.96475 | 10.55040 | 4420 ft | 200 kts | 259° |
| 2026-05-06 14:58 | 33.96344 | 10.53370 | 4426 ft | 200 kts | 259° |
| 2026-05-06 14:59 | 33.96199 | 10.51727 | 4422 ft | 199 kts | 255° |
| 2026-05-06 14:59 | 33.95584 | 10.50309 | 4415 ft | 189 kts | 218° |
| 2026-05-06 14:59 | 33.94407 | 10.49725 | 4414 ft | 185 kts | 182° |
| 2026-05-06 14:59 | 33.93119 | 10.49800 | 4404 ft | 183 kts | 174° |
| 2026-05-06 15:00 | 33.91882 | 10.49962 | 4050 ft | 182 kts | 174° |
| 2026-05-06 15:00 | 33.90652 | 10.50320 | 3656 ft | 183 kts | 158° |
| 2026-05-06 15:00 | 33.89651 | 10.51238 | 3293 ft | 185 kts | 126° |
| 2026-05-06 15:00 | 33.89340 | 10.52747 | 2944 ft | 192 kts | 94° |
| 2026-05-06 15:01 | 33.89416 | 10.54347 | 2595 ft | 190 kts | 91° |
| 2026-05-06 15:01 | 33.89374 | 10.55921 | 2258 ft | 185 kts | 101° |
| 2026-05-06 15:01 | 33.89179 | 10.57423 | 2029 ft | 180 kts | 102° |
| 2026-05-06 15:01 | 33.88960 | 10.58904 | 2011 ft | 178 kts | 103° |
| 2026-05-06 15:02 | 33.88747 | 10.60371 | 2010 ft | 179 kts | 103° |
| 2026-05-06 15:02 | 33.88529 | 10.61850 | 2013 ft | 176 kts | 104° |
| 2026-05-06 15:02 | 33.88304 | 10.63198 | 1996 ft | 155 kts | 108° |
| 2026-05-06 15:02 | 33.88000 | 10.64359 | 1860 ft | 142 kts | 112° |
| 2026-05-06 15:03 | 33.87755 | 10.65100 | 1675 ft | 140 kts | 111° |
| 2026-05-06 15:03 | 33.87560 | 10.66604 | 1361 ft | 136 kts | 92° |
| 2026-05-06 15:03 | 33.87627 | 10.67706 | 1146 ft | 131 kts | 90° |
| 2026-05-06 15:03 | 33.87699 | 10.68804 | 1028 ft | 134 kts | 94° |
| 2026-05-06 15:04 | 33.87700 | 10.69539 | 997 ft | 131 kts | 96° |
| 2026-05-06 15:04 | 33.87668 | 10.70630 | 994 ft | 128 kts | 101° |
| 2026-05-06 15:04 | 33.87487 | 10.71678 | 779 ft | 129 kts | 102° |
| 2026-05-06 15:04 | 33.87400 | 10.72743 | 498 ft | 129 kts | 86° |
| 2026-05-06 15:05 | 33.87450 | 10.73816 | 384 ft | 130 kts | 86° |
| 2026-05-06 15:05 | 33.87484 | 10.74936 | 219 ft | 136 kts | 88° |
| 2026-05-06 15:05 | 33.87500 | 10.76072 | 94 ft | 135 kts | 85° |
| 2026-05-06 15:05 | 33.87532 | 10.77146 | 24 ft | 115 kts | 88° |
| 2026-05-06 15:06 | 33.87550 | 10.77911 | 21 ft | 67 kts | 88° |
| 2026-05-06 15:06 | 33.87560 | 10.78292 | 19 ft | 35 kts | 87° |
| 2026-05-06 15:06 | 33.87565 | 10.78538 | 20 ft | 17 kts | 97° |
| 2026-05-06 15:06 | 33.87488 | 10.78599 | 21 ft | 13 kts | 177° |
| 2026-05-06 15:07 | 33.87415 | 10.78575 | 21 ft | 10 kts | 229° |
| 2026-05-06 15:07 | 33.87400 | 10.78512 | 23 ft | 5 kts | 266° |
| 2026-05-06 15:07 | 33.87398 | 10.78485 | 25 ft | 4 kts | 266° |
| 2026-05-06 15:07 | 33.87397 | 10.78412 | 27 ft | 12 kts | 270° |
| 2026-05-06 15:08 | 33.87394 | 10.78308 | 27 ft | 12 kts | 267° |
| 2026-05-06 15:08 | 33.87397 | 10.78217 | 26 ft | 10 kts | 277° |
| 2026-05-06 15:08 | 33.87397 | 10.78137 | 26 ft | 9 kts | 268° |
| 2026-05-06 15:08 | 33.87393 | 10.78074 | 26 ft | 6 kts | 243° |
| 2026-05-06 15:09 | 33.87363 | 10.78065 | 27 ft | 3 kts | 175° |
| 2026-05-06 15:09 | 33.87346 | 10.78066 | 27 ft | 2 kts | 176° |
| 2026-05-06 15:09 | 33.87339 | 10.78067 | 27 ft | 1 kts | 176° |
| 2026-05-06 15:09 | 33.87337 | 10.78067 | 27 ft | 0 kts | 176° |
| 2026-05-06 15:10 | 33.87335 | 10.78067 | 27 ft | 0 kts | 176° |
| 2026-05-06 15:22 | 33.87343 | 10.78067 | 27 ft | 4 kts | 178° |
| 2026-05-06 15:22 | 33.87369 | 10.78068 | 27 ft | 4 kts | 195° |
| 2026-05-06 15:22 | 33.87392 | 10.78081 | 26 ft | 4 kts | 241° |
| 2026-05-06 15:22 | 33.87396 | 10.78093 | 26 ft | 2 kts | 268° |
| 2026-05-06 15:24 | 33.87396 | 10.78086 | 26 ft | 4 kts | 268° |
| 2026-05-06 15:24 | 33.87394 | 10.78015 | 26 ft | 9 kts | 268° |
| 2026-05-06 15:25 | 33.87392 | 10.77942 | 26 ft | 10 kts | 268° |
| 2026-05-06 15:25 | 33.87390 | 10.77847 | 26 ft | 13 kts | 268° |
| 2026-05-06 15:25 | 33.87387 | 10.77728 | 26 ft | 15 kts | 268° |
| 2026-05-06 15:25 | 33.87384 | 10.77609 | 26 ft | 13 kts | 268° |
| 2026-05-06 15:26 | 33.87381 | 10.77507 | 26 ft | 11 kts | 268° |
| 2026-05-06 15:26 | 33.87379 | 10.77411 | 27 ft | 13 kts | 268° |
| 2026-05-06 15:26 | 33.87373 | 10.77304 | 27 ft | 12 kts | 259° |
| 2026-05-06 15:26 | 33.87366 | 10.77213 | 27 ft | 10 kts | 268° |
| 2026-05-06 15:27 | 33.87363 | 10.77114 | 27 ft | 15 kts | 268° |
| 2026-05-06 15:27 | 33.87359 | 10.76974 | 27 ft | 19 kts | 268° |
| 2026-05-06 15:27 | 33.87355 | 10.76819 | 23 ft | 19 kts | 268° |
| 2026-05-06 15:27 | 33.87351 | 10.76660 | 20 ft | 19 kts | 268° |
| 2026-05-06 15:28 | 33.87347 | 10.76511 | 21 ft | 17 kts | 268° |
| 2026-05-06 15:28 | 33.87344 | 10.76383 | 21 ft | 14 kts | 268° |
| 2026-05-06 15:28 | 33.87341 | 10.76266 | 19 ft | 14 kts | 269° |
| 2026-05-06 15:28 | 33.87338 | 10.76146 | 16 ft | 14 kts | 271° |
| 2026-05-06 15:29 | 33.87380 | 10.76059 | 18 ft | 11 kts | 336° |
| 2026-05-06 15:29 | 33.87440 | 10.76052 | 21 ft | 7 kts | 358° |
| 2026-05-06 15:29 | 33.87481 | 10.76055 | 21 ft | 6 kts | 11° |
| 2026-05-06 15:29 | 33.87504 | 10.76086 | 22 ft | 5 kts | 79° |
| 2026-05-06 15:30 | 33.87505 | 10.76132 | 22 ft | 6 kts | 89° |
| 2026-05-06 15:30 | 33.87512 | 10.76340 | 20 ft | 57 kts | 88° |
| 2026-05-06 15:30 | 33.87528 | 10.77067 | 21 ft | 116 kts | 88° |
| 2026-05-06 15:30 | 33.87554 | 10.78230 | 59 ft | 158 kts | 87° |
| 2026-05-06 15:31 | 33.87642 | 10.79551 | 667 ft | 159 kts | 74° |
| 2026-05-06 15:31 | 33.88248 | 10.80687 | 1303 ft | 165 kts | 56° |
| 2026-05-06 15:31 | 33.89100 | 10.81703 | 1567 ft | 189 kts | 40° |
| 2026-05-06 15:32 | 33.91978 | 10.81432 | 2085 ft | 245 kts | 328° |
| 2026-05-06 15:32 | 33.93383 | 10.80289 | 2748 ft | 245 kts | 324° |
| 2026-05-06 15:32 | 33.94779 | 10.79101 | 3418 ft | 246 kts | 322° |
| 2026-05-06 15:32 | 33.96180 | 10.77900 | 4046 ft | 248 kts | 322° |
| 2026-05-06 15:33 | 33.97597 | 10.76692 | 4702 ft | 249 kts | 322° |
| 2026-05-06 15:33 | 33.99166 | 10.75778 | 5281 ft | 260 kts | 343° |
| 2026-05-06 15:33 | 34.01054 | 10.75486 | 5506 ft | 285 kts | 353° |
| 2026-05-06 15:33 | 34.03083 | 10.75290 | 5988 ft | 297 kts | 353° |
| 2026-05-06 15:34 | 34.05133 | 10.75106 | 6654 ft | 301 kts | 353° |
| 2026-05-06 15:34 | 34.07223 | 10.74920 | 7344 ft | 303 kts | 353° |
| 2026-05-06 15:34 | 34.09332 | 10.74726 | 8052 ft | 305 kts | 352° |
| 2026-05-06 15:34 | 34.11456 | 10.74525 | 8731 ft | 308 kts | 352° |
| 2026-05-06 15:35 | 34.13608 | 10.74317 | 9426 ft | 311 kts | 351° |
| 2026-05-06 15:35 | 34.15789 | 10.74103 | 9969 ft | 320 kts | 351° |
| 2026-05-06 15:35 | 34.18093 | 10.73871 | 10106 ft | 343 kts | 352° |
| 2026-05-06 15:35 | 34.20509 | 10.73628 | 10359 ft | 360 kts | 352° |
| 2026-05-06 15:36 | 34.23028 | 10.73380 | 10883 ft | 366 kts | 352° |
| 2026-05-06 15:36 | 34.25584 | 10.73133 | 11474 ft | 371 kts | 352° |
| 2026-05-06 15:36 | 34.28178 | 10.72884 | 12073 ft | 375 kts | 352° |
| 2026-05-06 15:36 | 34.30794 | 10.72639 | 12659 ft | 380 kts | 352° |
| 2026-05-06 15:37 | 34.33442 | 10.72425 | 13241 ft | 384 kts | 353° |
| 2026-05-06 15:37 | 34.36129 | 10.72234 | 13784 ft | 389 kts | 353° |
| 2026-05-06 15:37 | 34.38846 | 10.72056 | 14344 ft | 392 kts | 353° |
| 2026-05-06 15:37 | 34.41587 | 10.71877 | 14923 ft | 394 kts | 353° |
| 2026-05-06 15:38 | 34.44333 | 10.71692 | 15523 ft | 396 kts | 352° |
| 2026-05-06 15:38 | 34.47058 | 10.71499 | 16113 ft | 397 kts | 352° |
| 2026-05-06 15:38 | 34.49822 | 10.71260 | 16710 ft | 398 kts | 350° |
| 2026-05-06 15:38 | 34.52586 | 10.70973 | 17297 ft | 399 kts | 349° |
| 2026-05-06 15:39 | 34.55357 | 10.70660 | 17878 ft | 400 kts | 349° |
| 2026-05-06 15:39 | 34.58138 | 10.70342 | 18398 ft | 402 kts | 349° |
| 2026-05-06 15:39 | 34.60926 | 10.70027 | 18896 ft | 403 kts | 348° |
| 2026-05-06 15:39 | 34.63688 | 10.69723 | 19387 ft | 404 kts | 348° |
| 2026-05-06 15:40 | 34.66496 | 10.69419 | 19876 ft | 405 kts | 348° |
| 2026-05-06 15:40 | 34.69311 | 10.69121 | 20352 ft | 406 kts | 348° |
| 2026-05-06 15:40 | 34.72153 | 10.68925 | 20830 ft | 413 kts | 354° |
| 2026-05-06 15:40 | 34.75047 | 10.69097 | 21294 ft | 416 kts | 355° |
| 2026-05-06 15:41 | 34.77950 | 10.69290 | 21681 ft | 418 kts | 355° |
| 2026-05-06 15:41 | 34.80844 | 10.69481 | 21771 ft | 412 kts | 355° |
| 2026-05-06 15:41 | 34.83688 | 10.69673 | 21785 ft | 407 kts | 355° |
| 2026-05-06 15:41 | 34.86508 | 10.69855 | 21783 ft | 406 kts | 355° |
| 2026-05-06 15:42 | 34.89294 | 10.70029 | 21786 ft | 405 kts | 355° |
| 2026-05-06 15:42 | 34.92114 | 10.70204 | 21791 ft | 405 kts | 355° |
| 2026-05-06 15:42 | 34.94938 | 10.70377 | 21792 ft | 405 kts | 355° |
| 2026-05-06 15:42 | 34.97753 | 10.70549 | 21795 ft | 405 kts | 355° |
| 2026-05-06 15:43 | 35.00568 | 10.70706 | 21798 ft | 405 kts | 354° |
| 2026-05-06 15:43 | 35.03389 | 10.70853 | 21803 ft | 405 kts | 354° |
| 2026-05-06 15:43 | 35.06212 | 10.70995 | 21804 ft | 405 kts | 354° |
| 2026-05-06 15:43 | 35.08993 | 10.71134 | 21813 ft | 405 kts | 354° |
| 2026-05-06 15:44 | 35.11815 | 10.71279 | 21813 ft | 406 kts | 355° |
| 2026-05-06 15:44 | 35.14630 | 10.71430 | 21819 ft | 405 kts | 355° |
| 2026-05-06 15:44 | 35.17449 | 10.71583 | 21819 ft | 405 kts | 355° |
| 2026-05-06 15:44 | 35.20273 | 10.71737 | 21820 ft | 406 kts | 355° |
| 2026-05-06 15:45 | 35.23093 | 10.71891 | 21819 ft | 406 kts | 355° |
| 2026-05-06 15:45 | 35.25920 | 10.72044 | 21822 ft | 406 kts | 355° |
| 2026-05-06 15:45 | 35.28746 | 10.72198 | 21822 ft | 405 kts | 355° |
| 2026-05-06 15:45 | 35.31562 | 10.72350 | 21823 ft | 405 kts | 355° |
| 2026-05-06 15:46 | 35.34383 | 10.72499 | 21821 ft | 406 kts | 355° |
| 2026-05-06 15:46 | 35.37205 | 10.72647 | 21820 ft | 406 kts | 355° |
| 2026-05-06 15:46 | 35.40023 | 10.72800 | 21824 ft | 406 kts | 355° |
| 2026-05-06 15:46 | 35.42816 | 10.72955 | 21826 ft | 406 kts | 356° |
| 2026-05-06 15:47 | 35.45639 | 10.73115 | 21830 ft | 406 kts | 356° |
| 2026-05-06 15:47 | 35.48461 | 10.73275 | 21838 ft | 407 kts | 356° |
| 2026-05-06 15:47 | 35.51298 | 10.73435 | 21845 ft | 407 kts | 356° |
| 2026-05-06 15:47 | 35.54126 | 10.73595 | 21848 ft | 407 kts | 356° |
| 2026-05-06 15:48 | 35.56954 | 10.73759 | 21851 ft | 407 kts | 356° |
| 2026-05-06 15:48 | 35.59747 | 10.73922 | 21853 ft | 407 kts | 356° |
| 2026-05-06 15:48 | 35.62569 | 10.74086 | 21856 ft | 408 kts | 356° |
| 2026-05-06 15:48 | 35.65388 | 10.74245 | 21863 ft | 408 kts | 356° |
| 2026-05-06 15:49 | 35.68181 | 10.74399 | 21851 ft | 407 kts | 356° |
| 2026-05-06 15:49 | 35.70986 | 10.74559 | 21609 ft | 398 kts | 357° |
| 2026-05-06 15:49 | 35.73742 | 10.74681 | 21097 ft | 394 kts | 352° |
| 2026-05-06 15:49 | 35.76392 | 10.74267 | 20656 ft | 384 kts | 340° |
| 2026-05-06 15:50 | 35.78895 | 10.73259 | 20192 ft | 376 kts | 333° |
| 2026-05-06 15:50 | 35.81338 | 10.72117 | 19755 ft | 375 kts | 333° |
| 2026-05-06 15:50 | 35.83717 | 10.71006 | 19334 ft | 374 kts | 333° |
| 2026-05-06 15:50 | 35.86206 | 10.69843 | 18888 ft | 373 kts | 333° |
| 2026-05-06 15:51 | 35.88634 | 10.68708 | 18462 ft | 372 kts | 332° |
| 2026-05-06 15:51 | 35.91045 | 10.67579 | 18007 ft | 372 kts | 332° |
| 2026-05-06 15:51 | 35.93440 | 10.66459 | 17566 ft | 370 kts | 333° |
| 2026-05-06 15:51 | 35.95845 | 10.65336 | 17147 ft | 368 kts | 333° |
| 2026-05-06 15:52 | 35.98242 | 10.64217 | 16729 ft | 366 kts | 333° |
| 2026-05-06 15:52 | 36.00624 | 10.63102 | 16307 ft | 362 kts | 333° |
| 2026-05-06 15:52 | 36.02914 | 10.62033 | 15910 ft | 353 kts | 333° |
| 2026-05-06 15:52 | 36.05186 | 10.60975 | 15516 ft | 345 kts | 333° |
| 2026-05-06 15:53 | 36.07402 | 10.59942 | 15141 ft | 337 kts | 333° |
| 2026-05-06 15:53 | 36.09576 | 10.58927 | 14764 ft | 331 kts | 333° |
| 2026-05-06 15:53 | 36.11706 | 10.57929 | 14400 ft | 325 kts | 333° |
| 2026-05-06 15:53 | 36.13775 | 10.56952 | 14045 ft | 319 kts | 333° |
| 2026-05-06 15:54 | 36.15174 | 10.56289 | 13803 ft | 319 kts | 333° |
| 2026-05-06 15:54 | 36.17913 | 10.54991 | 13282 ft | 318 kts | 333° |
| 2026-05-06 15:54 | 36.19316 | 10.54329 | 13032 ft | 318 kts | 334° |
| 2026-05-06 15:54 | 36.21363 | 10.53365 | 12658 ft | 318 kts | 334° |
| 2026-05-06 15:55 | 36.23441 | 10.52387 | 12276 ft | 320 kts | 334° |
| 2026-05-06 15:55 | 36.25534 | 10.51401 | 11885 ft | 322 kts | 335° |
| 2026-05-06 15:55 | 36.27634 | 10.50410 | 11483 ft | 324 kts | 335° |
| 2026-05-06 15:55 | 36.29726 | 10.49419 | 11096 ft | 326 kts | 335° |
| 2026-05-06 15:56 | 36.31852 | 10.48400 | 10691 ft | 328 kts | 336° |
| 2026-05-06 15:56 | 36.33990 | 10.47366 | 10274 ft | 330 kts | 336° |
| 2026-05-06 15:56 | 36.36140 | 10.46324 | 9853 ft | 333 kts | 336° |
| 2026-05-06 15:56 | 36.38238 | 10.45136 | 9541 ft | 328 kts | 327° |
| 2026-05-06 15:57 | 36.40060 | 10.43448 | 9147 ft | 323 kts | 315° |
| 2026-05-06 15:57 | 36.41739 | 10.41622 | 8857 ft | 320 kts | 316° |
| 2026-05-06 15:57 | 36.43400 | 10.39843 | 8504 ft | 318 kts | 317° |
| 2026-05-06 15:57 | 36.45082 | 10.38056 | 8150 ft | 316 kts | 317° |
| 2026-05-06 15:58 | 36.46755 | 10.36282 | 7805 ft | 315 kts | 318° |
| 2026-05-06 15:58 | 36.48419 | 10.34513 | 7469 ft | 313 kts | 318° |
| 2026-05-06 15:58 | 36.50067 | 10.32757 | 7122 ft | 311 kts | 319° |
| 2026-05-06 15:58 | 36.51709 | 10.31003 | 6772 ft | 309 kts | 319° |
| 2026-05-06 15:59 | 36.53330 | 10.29268 | 6390 ft | 306 kts | 319° |
| 2026-05-06 15:59 | 36.54935 | 10.27542 | 5919 ft | 304 kts | 320° |
| 2026-05-06 15:59 | 36.56519 | 10.25839 | 5441 ft | 299 kts | 320° |
| 2026-05-06 15:59 | 36.58067 | 10.24173 | 4787 ft | 298 kts | 320° |
| 2026-05-06 16:00 | 36.59630 | 10.22490 | 4229 ft | 292 kts | 321° |
| 2026-05-06 16:00 | 36.61110 | 10.20894 | 4051 ft | 271 kts | 321° |
| 2026-05-06 16:00 | 36.62488 | 10.19408 | 3932 ft | 256 kts | 321° |
| 2026-05-06 16:00 | 36.63912 | 10.18225 | 3838 ft | 236 kts | 339° |
| 2026-05-06 16:01 | 36.65442 | 10.17695 | 3635 ft | 222 kts | 357° |
| 2026-05-06 16:01 | 36.66945 | 10.17770 | 3388 ft | 212 kts | 14° |
| 2026-05-06 16:01 | 36.68364 | 10.18154 | 3126 ft | 211 kts | 14° |
| 2026-05-06 16:01 | 36.69795 | 10.18542 | 2848 ft | 209 kts | 14° |
| 2026-05-06 16:02 | 36.71177 | 10.18916 | 2592 ft | 198 kts | 15° |
| 2026-05-06 16:02 | 36.72494 | 10.19272 | 2318 ft | 189 kts | 14° |
| 2026-05-06 16:02 | 36.73754 | 10.19614 | 2073 ft | 181 kts | 14° |
| 2026-05-06 16:02 | 36.74937 | 10.19935 | 1844 ft | 171 kts | 14° |
| 2026-05-06 16:03 | 36.76029 | 10.20232 | 1643 ft | 159 kts | 14° |
| 2026-05-06 16:03 | 36.77100 | 10.20522 | 1409 ft | 148 kts | 14° |
| 2026-05-06 16:03 | 36.78098 | 10.20794 | 1216 ft | 146 kts | 14° |
| 2026-05-06 16:03 | 36.79074 | 10.21059 | 1027 ft | 145 kts | 14° |
| 2026-05-06 16:04 | 36.80051 | 10.21325 | 825 ft | 144 kts | 14° |
| 2026-05-06 16:04 | 36.81020 | 10.21589 | 642 ft | 142 kts | 12° |
| 2026-05-06 16:04 | 36.81978 | 10.21848 | 465 ft | 140 kts | 13° |
| 2026-05-06 16:04 | 36.82913 | 10.22102 | 311 ft | 139 kts | 13° |
| 2026-05-06 16:05 | 36.83797 | 10.22345 | 125 ft | 139 kts | 14° |
| 2026-05-06 16:05 | 36.84721 | 10.22590 | 33 ft | 126 kts | 13° |
| 2026-05-06 16:05 | 36.85412 | 10.22786 | 33 ft | 78 kts | 12° |
| 2026-05-06 16:05 | 36.85780 | 10.22887 | 30 ft | 38 kts | 13° |
| 2026-05-06 16:06 | 36.85955 | 10.22896 | 29 ft | 18 kts | 336° |
| 2026-05-06 16:06 | 36.86022 | 10.22788 | 30 ft | 15 kts | 279° |
| 2026-05-06 16:06 | 36.85991 | 10.22681 | 30 ft | 13 kts | 225° |
| 2026-05-06 16:06 | 36.85918 | 10.22643 | 30 ft | 10 kts | 192° |
| 2026-05-06 16:07 | 36.85852 | 10.22626 | 30 ft | 9 kts | 192° |
| 2026-05-06 16:07 | 36.85798 | 10.22611 | 30 ft | 8 kts | 193° |
| 2026-05-06 16:07 | 36.85754 | 10.22598 | 30 ft | 7 kts | 192° |
| 2026-05-06 16:07 | 36.85672 | 10.22577 | 30 ft | 17 kts | 192° |
| 2026-05-06 16:08 | 36.85565 | 10.22547 | 30 ft | 15 kts | 192° |
| 2026-05-06 16:08 | 36.85472 | 10.22522 | 30 ft | 13 kts | 192° |
| 2026-05-06 16:08 | 36.85391 | 10.22500 | 31 ft | 11 kts | 192° |
| 2026-05-06 16:08 | 36.85323 | 10.22481 | 32 ft | 9 kts | 192° |
| 2026-05-06 16:09 | 36.85270 | 10.22467 | 34 ft | 10 kts | 192° |
| 2026-05-06 16:09 | 36.85171 | 10.22441 | 35 ft | 16 kts | 191° |
| 2026-05-06 16:09 | 36.85071 | 10.22414 | 32 ft | 14 kts | 193° |
| 2026-05-06 16:09 | 36.84978 | 10.22391 | 31 ft | 13 kts | 189° |
| 2026-05-06 16:10 | 36.84892 | 10.22364 | 30 ft | 12 kts | 195° |
| 2026-05-06 16:10 | 36.84815 | 10.22343 | 30 ft | 11 kts | 192° |
| 2026-05-06 16:10 | 36.84749 | 10.22325 | 30 ft | 9 kts | 192° |
| 2026-05-06 16:10 | 36.84693 | 10.22310 | 30 ft | 7 kts | 192° |
| 2026-05-06 16:11 | 36.84636 | 10.22295 | 30 ft | 8 kts | 192° |
| 2026-05-06 16:11 | 36.84584 | 10.22281 | 30 ft | 7 kts | 192° |
| 2026-05-06 16:11 | 36.84539 | 10.22269 | 30 ft | 6 kts | 192° |
| 2026-05-06 16:11 | 36.84502 | 10.22256 | 30 ft | 7 kts | 208° |
| 2026-05-06 16:12 | 36.84492 | 10.22200 | 30 ft | 7 kts | 283° |
| 2026-05-06 16:12 | 36.84501 | 10.22150 | 30 ft | 5 kts | 283° |
| 2026-05-06 16:12 | 36.84509 | 10.22112 | 30 ft | 4 kts | 284° |
| 2026-05-06 16:12 | 36.84537 | 10.22083 | 30 ft | 5 kts | 323° |
| 2026-05-06 16:13 | 36.84552 | 10.22050 | 30 ft | 4 kts | 291° |
| 2026-05-06 16:13 | 36.84561 | 10.22023 | 30 ft | 3 kts | 291° |
| 2026-05-06 16:13 | 36.84566 | 10.22006 | 30 ft | 1 kts | 292° |